Time;durP1;ratioP1;P1;durP2;ratioP2;P2;SDS_P1;SDS_P2;PMS_P1;PMS_P2;Temp;Humidity;BMP_temperature;BMP_pressure;BME280_temperature;BME280_humidity;BME280_pressure;Samples;Min_cycle;Max_cycle;Signal;HPM_P1;HPM_P2
2022/04/29 00:00:16;;;;;;;7.00;3.35;;;;;;;11.28;46.65;101261.59;4972296;28;20479;-60
2022/04/29 00:02:45;;;;;;;10.95;3.45;;;;;;;11.28;45.71;101259.84;4972836;28;20054;-59
2022/04/29 00:05:13;;;;;;;5.97;3.60;;;;;;;11.27;45.63;101265.16;4972854;28;20062;-60
2022/04/29 00:07:40;;;;;;;7.82;4.07;;;;;;;11.25;45.84;101270.50;4971641;28;20507;-59
2022/04/29 00:10:12;;;;;;;8.60;4.00;;;;;;;11.23;46.11;101269.69;4971324;28;20057;-60
2022/04/29 00:12:46;;;;;;;12.45;3.30;;;;;;;11.21;46.68;101268.88;4972523;28;20065;-60
2022/04/29 00:15:15;;;;;;;22.70;4.43;;;;;;;11.19;45.96;101265.44;4972729;28;20055;-62
2022/04/29 00:17:42;;;;;;;7.70;3.63;;;;;;;11.18;46.00;101261.09;4972687;28;20058;-60
2022/04/29 00:20:10;;;;;;;11.23;3.83;;;;;;;11.15;46.24;101263.84;4972107;28;20069;-60
2022/04/29 00:22:38;;;;;;;11.23;4.05;;;;;;;11.15;46.10;101255.94;4972386;28;20051;-59
2022/04/29 00:25:05;;;;;;;7.95;4.00;;;;;;;11.15;46.24;101250.66;4972401;28;20054;-60
2022/04/29 00:27:31;;;;;;;8.93;4.05;;;;;;;11.14;46.08;101246.31;4972377;28;20384;-61
2022/04/29 00:29:58;;;;;;;9.30;3.90;;;;;;;11.11;46.32;101241.13;4972097;28;20047;-60
2022/04/29 00:32:25;;;;;;;11.00;3.88;;;;;;;11.08;46.27;101244.75;4971037;28;20051;-60
2022/04/29 00:34:51;;;;;;;11.13;4.03;;;;;;;11.05;46.46;101236.94;4972385;28;20061;-61
2022/04/29 00:37:19;;;;;;;10.15;3.83;;;;;;;11.01;46.30;101237.94;4972058;28;20057;-60
2022/04/29 00:39:45;;;;;;;11.68;3.85;;;;;;;10.96;46.48;101235.50;4971893;28;20559;-61
2022/04/29 00:42:17;;;;;;;14.48;3.63;;;;;;;10.92;46.71;101242.63;4972066;28;20043;-60
2022/04/29 00:44:45;;;;;;;10.45;3.95;;;;;;;10.87;46.91;101236.66;4972324;28;20510;-61
2022/04/29 00:47:15;;;;;;;9.68;3.70;;;;;;;10.85;47.07;101243.78;4970731;28;20054;-60
2022/04/29 00:49:43;;;;;;;9.30;3.78;;;;;;;10.84;47.03;101239.41;4970664;28;20062;-60
2022/04/29 00:52:14;;;;;;;16.40;4.38;;;;;;;10.82;47.44;101246.50;4971694;28;20396;-61
2022/04/29 00:54:45;;;;;;;8.02;3.83;;;;;;;10.82;47.16;101235.97;4970627;28;20101;-60
2022/04/29 00:57:20;;;;;;;10.07;3.95;;;;;;;10.80;47.99;101241.28;4971937;28;20051;-61
2022/04/29 00:59:53;;;;;;;11.00;3.97;;;;;;;10.82;46.99;101246.50;4970445;28;20062;-60
2022/04/29 01:02:21;;;;;;;8.02;4.13;;;;;;;10.81;46.83;101240.34;4971575;28;20057;-62
2022/04/29 01:04:59;;;;;;;9.02;4.55;;;;;;;10.77;48.03;101232.63;4970569;28;20134;-62
2022/04/29 01:07:30;;;;;;;10.98;4.30;;;;;;;10.73;48.06;101237.13;4970653;28;20059;-60
2022/04/29 01:09:57;;;;;;;13.15;4.95;;;;;;;10.73;47.06;101239.75;4970421;28;20047;-60
2022/04/29 01:12:26;;;;;;;11.35;4.38;;;;;;;10.69;47.29;101241.66;4971651;28;20042;-61
2022/04/29 01:14:54;;;;;;;9.00;4.63;;;;;;;10.65;47.61;101233.91;4970146;28;20058;-61
2022/04/29 01:17:21;;;;;;;11.07;4.90;;;;;;;10.63;47.37;101235.72;4970123;28;20054;-60
2022/04/29 01:19:47;;;;;;;8.88;3.88;;;;;;;10.59;47.50;101229.72;4971552;28;20824;-60
2022/04/29 01:22:14;;;;;;;10.02;5.25;;;;;;;10.57;47.64;101235.94;4971291;28;20042;-62
2022/04/29 01:24:41;;;;;;;13.48;4.47;;;;;;;10.55;47.70;101228.94;4971491;28;20066;-61
2022/04/29 01:27:10;;;;;;;9.05;4.22;;;;;;;10.53;47.89;101220.22;4971385;28;20511;-59
2022/04/29 01:29:40;;;;;;;9.90;3.97;;;;;;;10.54;47.80;101224.59;4971085;28;20081;-60
2022/04/29 01:32:09;;;;;;;10.30;4.85;;;;;;;10.53;47.92;101222.00;4971305;28;20086;-60
2022/04/29 01:34:39;;;;;;;9.68;3.85;;;;;;;10.53;47.70;101219.38;4970275;28;20046;-60
2022/04/29 01:37:06;;;;;;;7.78;4.13;;;;;;;10.52;47.80;101223.78;4970103;28;20055;-60
2022/04/29 01:39:33;;;;;;;15.05;4.88;;;;;;;10.52;47.96;101217.66;4971263;28;20509;-60
2022/04/29 01:42:00;;;;;;;9.52;4.07;;;;;;;10.50;48.25;101220.31;4971228;28;20054;-60
2022/04/29 01:44:26;;;;;;;13.18;4.55;;;;;;;10.49;48.14;101223.00;4971210;28;20074;-60
2022/04/29 01:46:53;;;;;;;9.73;4.05;;;;;;;10.46;48.25;101223.97;4971270;28;20495;-60
2022/04/29 01:49:19;;;;;;;9.30;4.47;;;;;;;10.43;48.13;101216.13;4971145;28;20511;-60
2022/04/29 01:51:46;;;;;;;8.82;4.50;;;;;;;10.41;48.15;101215.34;4971293;28;20050;-59
2022/04/29 01:54:13;;;;;;;10.10;4.47;;;;;;;10.38;48.36;101205.78;4970042;28;20058;-58
2022/04/29 01:56:40;;;;;;;11.00;4.10;;;;;;;10.37;48.20;101200.56;4971311;28;20047;-60
2022/04/29 01:59:07;;;;;;;14.13;4.32;;;;;;;10.35;48.32;101197.13;4970949;28;20415;-61
2022/04/29 02:01:34;;;;;;;9.70;3.88;;;;;;;10.32;48.54;101198.06;4970922;28;20046;-60
2022/04/29 02:04:01;;;;;;;9.27;4.47;;;;;;;10.29;48.59;101192.91;4971274;28;20047;-61
2022/04/29 02:06:28;;;;;;;9.20;3.90;;;;;;;10.26;48.54;101195.66;4971190;28;20050;-59
2022/04/29 02:08:55;;;;;;;9.88;4.28;;;;;;;10.24;48.64;101192.22;4971123;28;20134;-59
2022/04/29 02:11:22;;;;;;;13.82;4.20;;;;;;;10.22;48.65;101188.75;4970762;28;20051;-60
2022/04/29 02:13:49;;;;;;;13.30;4.60;;;;;;;10.19;48.81;101184.47;4970870;28;20050;-60
2022/04/29 02:16:15;;;;;;;10.25;3.83;;;;;;;10.18;48.70;101182.75;4971147;28;20054;-61
2022/04/29 02:18:42;;;;;;;13.80;4.55;;;;;;;10.14;48.90;101176.69;4971259;28;20054;-60
2022/04/29 02:21:09;;;;;;;9.00;4.05;;;;;;;10.13;49.05;101174.16;4970658;28;20547;-60
2022/04/29 02:23:35;;;;;;;10.57;4.15;;;;;;;10.12;48.89;101175.03;4970816;28;20054;-62
2022/04/29 02:26:02;;;;;;;13.45;4.72;;;;;;;10.10;49.10;101168.97;4970904;28;20101;-60
2022/04/29 02:28:30;;;;;;;8.23;3.70;;;;;;;10.08;49.06;101157.63;4969697;28;20061;-60
2022/04/29 02:30:58;;;;;;;13.30;4.18;;;;;;;10.05;49.13;101150.69;4970732;28;20422;-60
2022/04/29 02:33:25;;;;;;;11.80;4.43;;;;;;;10.03;49.08;101149.91;4971269;28;20055;-60
2022/04/29 02:35:51;;;;;;;9.95;4.53;;;;;;;9.99;49.13;101157.00;4970894;28;20050;-60
2022/04/29 02:38:18;;;;;;;10.68;4.10;;;;;;;9.96;49.06;101162.38;4970928;28;20106;-60
2022/04/29 02:40:45;;;;;;;12.32;4.50;;;;;;;9.93;49.41;101156.34;4970771;28;20447;-60
2022/04/29 02:43:12;;;;;;;10.88;4.63;;;;;;;9.88;49.56;101154.72;4972677;28;20055;-60
2022/04/29 02:45:38;;;;;;;10.32;4.35;;;;;;;9.85;49.58;101157.47;4974295;28;20046;-60
2022/04/29 02:48:05;;;;;;;11.20;4.80;;;;;;;9.82;49.50;101154.91;4974225;28;20427;-61
2022/04/29 02:50:32;;;;;;;11.55;5.13;;;;;;;9.81;49.77;101158.47;4974068;28;20061;-62
2022/04/29 02:52:58;;;;;;;12.98;4.82;;;;;;;9.80;49.88;101156.75;4974210;28;20058;-62
2022/04/29 02:55:25;;;;;;;9.35;4.75;;;;;;;9.79;49.92;101160.25;4974174;28;20058;-61
2022/04/29 02:57:52;;;;;;;11.57;5.07;;;;;;;9.78;49.84;101156.78;4972987;28;20058;-60
2022/04/29 03:00:19;;;;;;;14.70;4.93;;;;;;;9.78;50.00;101151.53;4973908;28;20058;-61
2022/04/29 03:02:45;;;;;;;7.47;4.72;;;;;;;9.77;50.11;101156.84;4974096;28;20050;-60
2022/04/29 03:05:12;;;;;;;13.73;5.68;;;;;;;9.76;49.93;101157.75;4973998;28;20086;-63
2022/04/29 03:07:39;;;;;;;9.05;5.13;;;;;;;9.75;49.92;101154.25;4972716;28;20055;-59
2022/04/29 03:10:06;;;;;;;13.20;6.07;;;;;;;9.74;50.00;101156.94;4973929;28;20050;-60
2022/04/29 03:12:33;;;;;;;17.20;6.32;;;;;;;9.71;50.50;101157.00;4974011;28;20055;-62
2022/04/29 03:15:18;;;;;;;11.73;5.13;;;;;;;9.70;50.38;101150.03;4974006;28;20058;-58
2022/04/29 03:20:36;;;;;;;10.48;5.60;;;;;;;9.63;51.02;101147.63;4974131;28;20059;-59
2022/04/29 03:23:04;;;;;;;11.63;5.68;;;;;;;9.65;50.38;101150.19;4972396;28;20106;-59
2022/04/29 03:25:31;;;;;;;11.95;5.40;;;;;;;9.64;50.56;101148.44;4972300;28;20055;-58
2022/04/29 03:27:58;;;;;;;11.55;5.70;;;;;;;9.63;50.30;101149.38;4972246;28;20454;-58
2022/04/29 03:30:24;;;;;;;12.32;5.43;;;;;;;9.62;50.59;101143.25;4973213;28;20105;-58
2022/04/29 03:32:52;;;;;;;16.50;5.80;;;;;;;9.62;50.41;101145.03;4973738;28;20059;-57
2022/04/29 03:35:19;;;;;;;9.45;5.50;;;;;;;9.60;50.62;101137.19;4972116;28;20047;-57
2022/04/29 03:37:46;;;;;;;10.73;5.72;;;;;;;9.59;50.52;101139.84;4973525;28;20054;-58
2022/04/29 03:40:15;;;;;;;14.60;6.05;;;;;;;9.57;50.68;101132.00;4973186;28;20467;-55
2022/04/29 03:42:42;;;;;;;11.73;5.90;;;;;;;9.56;50.57;101134.69;4971761;28;20043;-56
2022/04/29 03:45:09;;;;;;;12.65;6.20;;;;;;;9.55;50.64;101135.59;4973043;28;20053;-60
2022/04/29 03:47:36;;;;;;;10.65;6.20;;;;;;;9.54;51.03;101139.13;4973374;28;20054;-58
2022/04/29 03:50:02;;;;;;;14.30;5.20;;;;;;;9.52;50.75;101137.44;4973117;28;20058;-57
2022/04/29 03:52:29;;;;;;;10.13;5.68;;;;;;;9.49;50.87;101132.25;4973006;28;20069;-60
2022/04/29 03:54:56;;;;;;;11.57;7.00;;;;;;;9.47;50.94;101136.72;4972486;28;20057;-58
2022/04/29 03:57:23;;;;;;;15.75;6.35;;;;;;;9.45;51.24;101133.25;4972874;28;20055;-60
2022/04/29 03:59:49;;;;;;;19.77;6.47;;;;;;;9.44;51.13;101136.78;4972579;28;20062;-59
2022/04/29 04:02:16;;;;;;;8.98;5.65;;;;;;;9.40;51.06;101129.91;4971666;28;20054;-60
2022/04/29 04:04:43;;;;;;;14.00;6.45;;;;;;;9.38;51.18;101129.94;4972838;28;20070;-57
2022/04/29 04:07:09;;;;;;;13.52;6.57;;;;;;;9.36;51.26;101138.78;4973023;28;20075;-61
2022/04/29 04:09:36;;;;;;;14.80;6.68;;;;;;;9.36;51.18;101138.78;4972666;28;20450;-57
2022/04/29 04:12:04;;;;;;;15.40;6.95;;;;;;;9.33;51.60;101138.88;4972535;28;20094;-59
2022/04/29 04:14:36;;;;;;;17.63;6.85;;;;;;;9.34;51.60;101148.47;4972936;28;20047;-59
2022/04/29 04:17:03;;;;;;;10.88;6.28;;;;;;;9.32;51.72;101135.41;4972822;28;20054;-62
2022/04/29 04:19:29;;;;;;;12.27;7.03;;;;;;;9.32;51.67;101145.91;4972657;28;20054;-54
2022/04/29 04:21:56;;;;;;;14.73;6.72;;;;;;;9.31;51.75;101145.94;4972351;28;20055;-62
2022/04/29 04:24:22;;;;;;;13.15;6.80;;;;;;;9.30;51.92;101142.44;4971376;28;20062;-56
2022/04/29 04:26:49;;;;;;;14.48;7.03;;;;;;;9.33;52.02;101136.22;4972164;28;20046;-58
2022/04/29 04:29:16;;;;;;;14.23;6.68;;;;;;;9.35;52.24;101134.44;4972506;28;20051;-60
2022/04/29 04:31:42;;;;;;;13.52;7.00;;;;;;;9.36;52.00;101128.28;4972477;28;20058;-55
2022/04/29 04:36:54;;;;;;;12.30;6.53;;;;;;;9.38;51.85;101124.69;4972552;28;20101;-56
2022/04/29 04:39:22;;;;;;;13.95;7.32;;;;;;;9.37;52.44;101127.34;4972010;28;20105;-60
2022/04/29 04:41:49;;;;;;;14.25;6.78;;;;;;;9.36;52.11;101128.28;4972033;28;20050;-60
2022/04/29 04:44:16;;;;;;;13.25;7.78;;;;;;;9.36;52.27;101136.16;4972175;28;20483;-60
2022/04/29 04:46:43;;;;;;;11.57;7.25;;;;;;;9.36;52.23;101141.41;4970425;28;20051;-60
2022/04/29 04:49:11;;;;;;;12.82;6.57;;;;;;;9.35;52.22;101143.16;4971460;28;20720;-56
2022/04/29 04:51:37;;;;;;;13.77;7.07;;;;;;;9.34;52.33;101140.56;4971876;28;20050;-55
2022/04/29 04:54:04;;;;;;;16.10;7.15;;;;;;;9.35;52.13;101139.69;4971897;28;20058;-58
2022/04/29 04:56:31;;;;;;;10.30;6.63;;;;;;;9.35;52.64;101137.91;4972063;28;20109;-59
2022/04/29 04:58:58;;;;;;;10.68;6.30;;;;;;;9.37;52.42;101145.75;4972050;28;20058;-61
2022/04/29 05:01:24;;;;;;;12.02;6.53;;;;;;;9.38;52.41;101136.97;4971687;28;20054;-60
2022/04/29 05:03:51;;;;;;;12.85;6.90;;;;;;;9.39;52.56;101144.78;4971791;28;20057;-61
2022/04/29 05:06:19;;;;;;;15.05;7.25;;;;;;;9.40;52.71;101135.16;4971073;28;20051;-60
2022/04/29 05:08:45;;;;;;;13.00;6.15;;;;;;;9.41;52.41;101141.28;4971559;28;20062;-58
2022/04/29 05:11:12;;;;;;;10.57;7.20;;;;;;;9.40;52.56;101143.03;4970295;28;20054;-60
2022/04/29 05:13:38;;;;;;;13.35;7.03;;;;;;;9.39;52.24;101144.78;4971845;28;20050;-60
2022/04/29 05:16:05;;;;;;;18.92;7.35;;;;;;;9.38;52.67;101137.81;4971741;28;20781;-61
2022/04/29 05:18:32;;;;;;;14.18;7.82;;;;;;;9.38;52.75;101134.31;4971481;28;20419;-60
2022/04/29 05:21:00;;;;;;;16.48;7.70;;;;;;;9.38;53.14;101143.09;4971337;28;20051;-59
2022/04/29 05:23:27;;;;;;;16.75;7.88;;;;;;;9.40;52.74;101140.41;4970102;28;20138;-59
2022/04/29 05:25:53;;;;;;;12.32;6.88;;;;;;;9.39;52.91;101147.44;4971382;28;20183;-55
2022/04/29 05:28:21;;;;;;;12.98;7.53;;;;;;;9.41;52.64;101154.44;4971376;28;20050;-60
2022/04/29 05:30:48;;;;;;;14.80;7.50;;;;;;;9.40;52.81;101150.94;4971316;28;20074;-59
2022/04/29 05:33:15;;;;;;;20.30;7.57;;;;;;;9.39;52.53;101141.34;4970338;28;20054;-59
2022/04/29 05:35:42;;;;;;;17.05;7.97;;;;;;;9.38;52.81;101134.31;4969948;28;20055;-60
2022/04/29 05:38:09;;;;;;;11.48;7.45;;;;;;;9.37;52.86;101137.88;4971609;28;20050;-60
2022/04/29 05:43:21;;;;;;;14.68;7.10;;;;;;;9.37;52.89;101143.13;4971629;28;20061;-58
2022/04/29 05:45:48;;;;;;;12.88;7.18;;;;;;;9.36;52.80;101147.53;4969905;28;20487;-60
2022/04/29 05:48:15;;;;;;;20.05;7.45;;;;;;;9.38;52.99;101147.47;4971091;28;20051;-61
2022/04/29 05:50:41;;;;;;;12.32;6.72;;;;;;;9.41;53.21;101155.28;4971330;28;20051;-60
2022/04/29 05:53:08;;;;;;;18.98;7.03;;;;;;;9.44;53.47;101146.44;4971734;28;20066;-62
2022/04/29 05:55:35;;;;;;;21.48;7.05;;;;;;;9.47;53.62;101149.84;4972028;28;20058;-61
2022/04/29 05:58:17;;;;;;;18.67;6.95;;;;;;;9.52;53.58;101153.19;4971461;28;20050;-61
2022/04/29 06:00:44;;;;;;;15.25;6.63;;;;;;;9.57;53.77;101146.94;4971173;28;20066;-64
2022/04/29 06:03:10;;;;;;;12.13;7.50;;;;;;;9.62;53.77;101147.66;4971591;28;20482;-62
2022/04/29 06:05:37;;;;;;;10.63;7.07;;;;;;;9.68;53.91;101150.06;4970070;28;20638;-59
2022/04/29 06:08:04;;;;;;;17.15;7.32;;;;;;;9.75;54.05;101151.63;4970839;28;20499;-61
2022/04/29 06:10:30;;;;;;;13.80;7.93;;;;;;;9.85;54.17;101162.72;4971001;28;20054;-62
2022/04/29 06:12:57;;;;;;;15.80;7.97;;;;;;;9.96;54.61;101169.41;4971028;28;20107;-60
2022/04/29 06:15:23;;;;;;;14.65;6.75;;;;;;;10.06;54.50;101167.34;4971217;28;20082;-60
2022/04/29 06:17:50;;;;;;;17.17;7.30;;;;;;;10.16;54.32;101163.50;4974361;28;20050;-61
2022/04/29 06:20:16;;;;;;;16.48;7.20;;;;;;;10.27;54.31;101157.88;4974690;28;20057;-62
2022/04/29 06:22:46;;;;;;;18.30;7.40;;;;;;;10.37;54.89;101161.06;4975073;28;20511;-61
2022/04/29 06:25:13;;;;;;;13.75;6.88;;;;;;;10.46;54.00;101152.06;4973644;28;20063;-62
2022/04/29 06:27:44;;;;;;;15.68;7.88;;;;;;;10.54;53.89;101166.66;4973704;28;20054;-62
2022/04/29 06:30:11;;;;;;;16.88;7.47;;;;;;;10.62;53.88;101165.53;4974423;28;20138;-60
2022/04/29 06:32:37;;;;;;;16.85;7.78;;;;;;;10.70;54.06;101150.34;4974829;28;20065;-61
2022/04/29 06:35:06;;;;;;;15.43;7.15;;;;;;;10.76;54.13;101155.38;4974735;28;20050;-60
2022/04/29 06:37:33;;;;;;;18.20;6.95;;;;;;;10.85;54.14;101150.69;4973396;28;20051;-61
2022/04/29 06:40:00;;;;;;;15.95;7.22;;;;;;;10.94;54.08;101150.38;4973004;28;20054;-60
2022/04/29 06:42:27;;;;;;;13.18;7.30;;;;;;;11.02;54.21;101139.53;4974474;28;20070;-58
2022/04/29 06:44:53;;;;;;;15.00;7.18;;;;;;;11.14;54.13;101146.16;4974274;28;20143;-63
2022/04/29 06:47:20;;;;;;;14.55;7.05;;;;;;;11.24;54.26;101151.94;4974484;28;20057;-64
2022/04/29 06:49:46;;;;;;;18.40;6.70;;;;;;;11.33;54.00;101155.09;4974299;28;20042;-59
2022/04/29 06:52:13;;;;;;;10.20;6.90;;;;;;;11.44;53.94;101165.22;4974522;28;20062;-60
2022/04/29 06:54:40;;;;;;;12.13;6.90;;;;;;;11.56;54.11;101158.59;4973027;28;20047;-60
2022/04/29 06:57:09;;;;;;;14.38;6.50;;;;;;;11.70;53.90;101160.72;4974550;28;20046;-59
2022/04/29 06:59:36;;;;;;;14.75;6.95;;;;;;;11.83;53.86;101152.31;4973908;28;20062;-62
2022/04/29 07:02:04;;;;;;;15.95;7.38;;;;;;;11.94;53.71;101158.03;4974190;28;20046;-60
2022/04/29 07:04:32;;;;;;;13.00;6.97;;;;;;;12.06;53.72;101151.44;4973941;28;20546;-61
2022/04/29 07:06:59;;;;;;;17.30;7.88;;;;;;;12.18;53.58;101157.97;4971585;28;20049;-61
2022/04/29 07:09:27;;;;;;;13.57;7.22;;;;;;;12.29;53.90;101146.97;4973057;28;20058;-62
2022/04/29 07:12:16;;;;;;;17.20;6.55;;;;;;;12.43;53.22;101150.81;4966319;28;20040;-60
2022/04/29 07:14:46;;;;;;;15.18;6.63;;;;;;;12.52;52.84;101158.34;4964240;28;20055;-60
2022/04/29 07:17:27;;;;;;;13.50;7.15;;;;;;;12.61;52.63;101142.13;4971084;28;20054;-60
2022/04/29 07:19:54;;;;;;;11.18;7.13;;;;;;;12.68;52.54;101145.34;4973276;28;20050;-61
2022/04/29 07:22:29;;;;;;;11.43;6.53;;;;;;;12.72;52.41;101143.44;4973591;28;20546;-60
2022/04/29 07:24:59;;;;;;;14.55;6.75;;;;;;;12.76;51.94;101137.09;4973247;28;20403;-59
2022/04/29 07:27:32;;;;;;;13.32;7.20;;;;;;;12.78;52.09;101143.16;4973004;28;20054;-61
2022/04/29 07:30:01;;;;;;;14.60;7.75;;;;;;;12.80;52.06;101148.38;4971379;28;20515;-61
2022/04/29 07:32:28;;;;;;;11.73;7.15;;;;;;;12.80;51.73;101151.88;4972426;28;20059;-60
2022/04/29 07:43:14;;;;;;;10.85;5.95;;;;;;;12.81;51.79;101147.44;4973476;28;20051;-61
2022/04/29 07:45:42;;;;;;;11.82;5.38;;;;;;;12.83;51.83;101142.97;4973530;28;20046;-63
2022/04/29 07:48:09;;;;;;;12.65;5.82;;;;;;;12.85;51.77;101149.88;4972284;28;20083;-61
2022/04/29 07:50:36;;;;;;;13.80;5.47;;;;;;;12.87;51.52;101142.72;4971974;28;20455;-61
2022/04/29 07:53:03;;;;;;;10.50;5.55;;;;;;;12.89;51.73;101135.63;4973650;28;20059;-60
2022/04/29 07:55:30;;;;;;;9.18;5.20;;;;;;;12.93;51.78;101132.84;4972305;28;20046;-59
2022/04/29 07:57:57;;;;;;;12.18;5.82;;;;;;;12.95;51.71;101139.78;4973524;28;20062;-61
2022/04/29 08:00:24;;;;;;;9.48;5.25;;;;;;;12.98;51.57;101144.06;4973186;28;20055;-59
2022/04/29 08:02:51;;;;;;;9.18;5.20;;;;;;;13.01;51.51;101151.88;4973291;28;20482;-62
2022/04/29 08:05:18;;;;;;;11.10;5.32;;;;;;;13.04;51.39;101149.06;4973231;28;20054;-60
2022/04/29 08:07:47;;;;;;;10.73;5.13;;;;;;;13.07;51.41;101141.00;4973235;28;20070;-59
2022/04/29 08:10:14;;;;;;;9.63;4.97;;;;;;;13.11;51.30;101132.00;4971770;28;20055;-61
2022/04/29 08:12:40;;;;;;;9.90;4.75;;;;;;;13.16;51.07;101142.38;4972104;28;20105;-60
2022/04/29 08:15:09;;;;;;;12.20;5.07;;;;;;;13.20;51.08;101143.09;4973190;28;20062;-62
2022/04/29 08:17:38;;;;;;;7.25;4.35;;;;;;;13.23;50.68;101133.22;4973069;28;20411;-60
2022/04/29 08:20:08;;;;;;;9.75;4.93;;;;;;;13.27;50.94;101136.59;4972785;28;20051;-62
2022/04/29 08:22:36;;;;;;;11.57;5.25;;;;;;;13.30;50.79;101128.50;4971922;28;20055;-60
2022/04/29 08:25:04;;;;;;;9.95;4.70;;;;;;;13.33;50.87;101135.44;4972866;28;20061;-62
2022/04/29 08:27:31;;;;;;;11.32;5.32;;;;;;;13.35;50.67;101137.06;4971749;28;20130;-60
2022/04/29 08:29:58;;;;;;;9.98;4.95;;;;;;;13.37;50.56;101135.22;4972592;28;20076;-62
2022/04/29 08:32:25;;;;;;;10.93;4.90;;;;;;;13.39;50.36;101133.34;4972555;28;20065;-61
2022/04/29 08:34:51;;;;;;;9.23;5.15;;;;;;;13.39;50.30;101128.06;4971194;28;20514;-60
2022/04/29 08:37:18;;;;;;;11.02;5.22;;;;;;;13.41;50.32;101126.22;4972504;28;20054;-62
2022/04/29 08:39:45;;;;;;;10.18;4.97;;;;;;;13.41;50.22;101126.22;4971161;28;20137;-61
2022/04/29 08:42:11;;;;;;;11.05;5.18;;;;;;;13.43;50.40;101129.63;4972314;28;20046;-61
2022/04/29 08:44:41;;;;;;;11.88;5.78;;;;;;;13.45;50.59;101129.56;4972020;28;20506;-62
2022/04/29 08:47:09;;;;;;;12.88;5.63;;;;;;;13.48;50.57;101132.13;4969562;28;20082;-61
2022/04/29 08:49:36;;;;;;;13.45;5.50;;;;;;;13.53;50.54;101134.56;4971331;28;20053;-61
2022/04/29 08:52:07;;;;;;;10.68;6.10;;;;;;;13.58;50.51;101129.03;4972607;28;20085;-61
2022/04/29 09:00:23;;;;;;;10.68;6.15;;;;;;;13.80;50.40;101119.13;4936148;28;20055;-60
2022/04/29 09:02:52;;;;;;;9.85;5.60;;;;;;;13.86;50.23;101123.25;4971235;28;20051;-60
2022/04/29 09:05:19;;;;;;;14.05;5.20;;;;;;;13.93;50.38;101127.31;4972179;28;20046;-61
2022/04/29 09:08:00;;;;;;;9.02;5.68;;;;;;;13.96;50.37;101121.03;4972112;28;20051;-60
2022/04/29 09:10:36;;;;;;;14.85;5.43;;;;;;;14.05;50.23;101122.34;4971009;28;20048;-61
2022/04/29 09:13:15;;;;;;;11.13;5.53;;;;;;;14.12;50.02;101122.88;4971108;28;20077;-62
2022/04/29 09:15:51;;;;;;;12.65;4.93;;;;;;;14.20;49.72;101132.19;4972128;28;20058;-61
2022/04/29 09:18:49;;;;;;;9.07;5.20;;;;;;;14.25;49.65;101136.38;4972018;28;20097;-60
2022/04/29 09:21:25;;;;;;;8.20;5.15;;;;;;;14.36;49.59;101134.06;4971989;28;20054;-61
2022/04/29 09:24:06;;;;;;;9.40;4.82;;;;;;;14.41;49.59;101129.38;4970806;28;20042;-61
2022/04/29 09:26:35;;;;;;;9.70;5.20;;;;;;;14.48;49.23;101129.06;4970950;28;20065;-60
2022/04/29 09:29:13;;;;;;;7.32;4.05;;;;;;;14.51;49.46;101136.84;4971876;28;20050;-62
2022/04/29 09:31:49;;;;;;;13.13;5.00;;;;;;;14.57;48.98;101131.22;4971916;28;20055;-61
2022/04/29 09:34:43;;;;;;;10.50;5.18;;;;;;;14.64;48.88;101129.13;4971846;28;20062;-61
2022/04/29 09:37:15;;;;;;;12.40;4.95;;;;;;;14.72;48.79;101130.44;4971692;28;20046;-61
2022/04/29 09:40:05;;;;;;;11.65;5.40;;;;;;;14.80;49.54;101129.22;4971754;28;20047;-60
2022/04/29 09:42:40;;;;;;;6.85;4.20;;;;;;;14.93;49.11;101122.31;4971727;28;20058;-60
2022/04/29 09:45:14;;;;;;;10.20;4.97;;;;;;;15.08;49.00;101127.72;4970349;28;20055;-60
2022/04/29 09:47:41;;;;;;;10.18;5.05;;;;;;;15.23;48.89;101118.94;4971425;28;20059;-60
2022/04/29 09:50:08;;;;;;;7.72;4.78;;;;;;;15.37;48.80;101125.28;4971529;28;20117;-62
2022/04/29 09:52:43;;;;;;;8.73;5.10;;;;;;;15.50;48.30;101126.31;4974450;28;20051;-61
2022/04/29 09:55:14;;;;;;;10.18;5.15;;;;;;;15.69;48.23;101124.41;4974460;28;20059;-61
2022/04/29 09:57:56;;;;;;;7.22;4.80;;;;;;;15.81;47.98;101123.72;4974099;28;20050;-61
2022/04/29 10:00:24;;;;;;;6.43;4.22;;;;;;;15.98;47.49;101130.75;4975175;28;20117;-62
2022/04/29 10:02:52;;;;;;;12.02;5.05;;;;;;;16.11;46.98;101116.75;4975410;28;20047;-60
2022/04/29 10:05:19;;;;;;;8.05;4.82;;;;;;;16.22;46.58;101124.09;4975372;28;20099;-61
2022/04/29 10:07:46;;;;;;;10.32;4.95;;;;;;;16.29;46.01;101128.09;4975505;28;20051;-60
2022/04/29 10:10:15;;;;;;;5.22;4.45;;;;;;;16.32;45.57;101125.25;4975139;28;20047;-60
2022/04/29 10:12:47;;;;;;;7.63;5.07;;;;;;;16.34;45.19;101130.47;4973677;28;20054;-61
2022/04/29 10:15:17;;;;;;;11.32;6.00;;;;;;;16.36;45.50;101124.13;4975111;28;20058;-60
2022/04/29 10:23:25;;;;;;;8.90;6.70;;;;;;;16.46;44.98;101124.44;4974951;28;20062;-61
2022/04/29 10:25:52;;;;;;;15.45;9.05;;;;;;;16.49;45.36;101126.88;4973691;28;20418;-62
2022/04/29 10:28:23;;;;;;;11.88;9.05;;;;;;;16.52;45.47;101123.22;4975023;28;20043;-60
2022/04/29 10:31:01;;;;;;;12.45;9.82;;;;;;;16.58;45.77;101119.31;4974683;28;20076;-62
2022/04/29 10:33:28;;;;;;;14.15;11.52;;;;;;;16.70;45.87;101115.06;4973424;28;20050;-60
2022/04/29 10:35:58;;;;;;;19.17;12.50;;;;;;;16.83;46.27;101116.03;4974720;28;20376;-61
2022/04/29 10:38:37;;;;;;;16.23;12.57;;;;;;;16.97;45.70;101116.97;4973528;28;20055;-60
2022/04/29 10:41:18;;;;;;;18.10;11.80;;;;;;;17.15;45.85;101115.84;4974482;28;20090;-60
2022/04/29 10:43:51;;;;;;;15.77;12.20;;;;;;;17.34;45.24;101111.16;4973177;28;20509;-60
2022/04/29 10:46:22;;;;;;;15.60;12.00;;;;;;;17.53;45.21;101110.84;4974797;28;20066;-61
2022/04/29 10:48:52;;;;;;;17.63;12.02;;;;;;;17.67;44.90;101105.44;4973252;28;20078;-62
2022/04/29 10:51:24;;;;;;;14.13;11.38;;;;;;;17.84;44.41;101108.81;4974202;28;20043;-62
2022/04/29 10:53:55;;;;;;;13.55;11.02;;;;;;;18.04;44.95;101106.63;4974650;28;20109;-60
2022/04/29 10:56:28;;;;;;;12.77;10.98;;;;;;;18.27;44.21;101113.09;4973089;28;20059;-61
2022/04/29 10:59:03;;;;;;;11.30;9.43;;;;;;;18.57;43.96;101103.94;4974429;28;20062;-63
2022/04/29 11:01:33;;;;;;;12.07;8.55;;;;;;;18.93;44.00;101095.28;4974318;28;20062;-60
2022/04/29 11:04:19;;;;;;;11.10;8.00;;;;;;;19.24;42.89;101104.66;4971888;28;20047;-61
2022/04/29 11:06:47;;;;;;;12.65;8.05;;;;;;;19.56;42.59;101100.59;4974348;28;20147;-60
2022/04/29 11:09:48;;;;;;;11.15;8.02;;;;;;;19.77;41.78;101089.25;4974123;28;20055;-61
2022/04/29 11:12:36;;;;;;;11.02;7.95;;;;;;;19.98;40.92;101094.84;4974198;28;20070;-63
2022/04/29 11:15:08;;;;;;;9.88;7.43;;;;;;;20.13;40.30;101092.84;4973850;28;20062;-62
2022/04/29 11:17:36;;;;;;;9.83;6.90;;;;;;;20.24;40.95;101088.47;4974376;28;20074;-60
2022/04/29 11:20:22;;;;;;;9.45;7.20;;;;;;;20.28;39.09;101088.13;4973617;28;20054;-64
2022/04/29 11:25:54;;;;;;;8.70;6.82;;;;;;;20.43;39.16;101085.22;4974009;28;20058;-61
2022/04/29 11:28:22;;;;;;;10.17;6.23;;;;;;;20.44;39.64;101089.59;4972748;28;20098;-60
2022/04/29 11:30:50;;;;;;;8.05;5.47;;;;;;;20.47;39.85;101093.84;4972403;28;20302;-61
2022/04/29 11:33:23;;;;;;;7.63;6.00;;;;;;;20.51;39.31;101090.84;4973821;28;20054;-61
2022/04/29 11:36:00;;;;;;;6.25;4.70;;;;;;;20.66;39.67;101094.13;4973538;28;20786;-63
2022/04/29 11:38:30;;;;;;;7.40;4.45;;;;;;;20.85;39.63;101097.19;4972756;28;20043;-60
2022/04/29 11:41:00;;;;;;;5.80;4.22;;;;;;;21.00;39.14;101085.28;4972378;28;20054;-60
2022/04/29 11:43:27;;;;;;;7.55;4.10;;;;;;;21.14;38.87;101073.47;4972385;28;20058;-60
2022/04/29 11:46:07;;;;;;;8.07;3.97;;;;;;;21.21;37.81;101071.13;4973599;28;20490;-60
2022/04/29 11:48:35;;;;;;;6.15;3.45;;;;;;;21.30;37.87;101074.91;4972246;28;20046;-60
2022/04/29 11:51:04;;;;;;;7.70;4.00;;;;;;;21.29;37.01;101073.16;4973358;28;20058;-60
2022/04/29 11:53:32;;;;;;;6.22;3.38;;;;;;;21.24;37.19;101076.25;4973466;28;20050;-60
2022/04/29 11:55:59;;;;;;;4.88;3.97;;;;;;;21.12;37.06;101077.22;4972284;28;20065;-60
2022/04/29 11:58:30;;;;;;;5.43;3.65;;;;;;;20.95;36.38;101071.41;4971173;28;20052;-61
2022/04/29 12:00:57;;;;;;;6.70;4.30;;;;;;;20.81;36.85;101067.13;4967263;28;20054;-62